Time,TemperatureF,DewpointF,PressureIn,WindDirection,WindDirectionDegrees,WindSpeedMPH,WindSpeedGustMPH,Humidity,HourlyPrecipIn,Conditions,Clouds,dailyrainin,SoftwareType,DateUTC
2013-05-23 00:03:00,73.0,66.0,-100.00,SW,235,4.0,11.0,78,-99.99,,,-99.99,,2013-05-23 04:03:00,
2013-05-23 00:12:00,73.0,66.0,-100.00,West,265,4.0,9.0,79,-99.99,,,-99.99,,2013-05-23 04:12:00,
2013-05-23 00:23:00,73.0,66.0,-100.00,WNW,300,0.0,8.0,79,-99.99,,,-99.99,,2013-05-23 04:23:00,
2013-05-23 00:33:00,72.0,66.0,-100.00,SW,225,3.0,9.0,80,-99.99,,,-99.99,,2013-05-23 04:33:00,
2013-05-23 00:43:00,72.0,66.0,-100.00,SW,225,3.0,9.0,80,-99.99,,,-99.99,,2013-05-23 04:43:00,
2013-05-23 00:52:00,71.0,64.0,-100.00,WNW,300,2.0,5.0,78,-99.99,,,-99.99,,2013-05-23 04:52:00,
2013-05-23 01:02:00,71.0,64.0,-100.00,WNW,300,2.0,5.0,78,-99.99,,,-99.99,,2013-05-23 05:02:00,
2013-05-23 01:11:00,70.0,62.0,-100.00,WSW,240,0.0,2.0,76,-99.99,,,-99.99,,2013-05-23 05:11:00,
2013-05-23 01:22:00,69.0,61.0,-100.00,South,190,0.0,0.0,78,-99.99,,,-99.99,,2013-05-23 05:22:00,
2013-05-23 01:32:00,67.0,61.0,-100.00,South,190,1.0,2.0,81,-99.99,,,-99.99,,2013-05-23 05:32:00,
2013-05-23 01:43:00,67.0,61.0,-100.00,South,190,1.0,2.0,81,-99.99,,,-99.99,,2013-05-23 05:43:00,
2013-05-23 01:52:00,67.0,62.0,-100.00,SSW,205,3.0,4.0,84,-99.99,,,-99.99,,2013-05-23 05:52:00,
2013-05-23 02:02:00,67.0,62.0,-100.00,SSW,205,3.0,4.0,84,-99.99,,,-99.99,,2013-05-23 06:02:00,
2013-05-23 02:12:00,67.0,63.0,-100.00,SSW,205,1.0,3.0,85,-99.99,,,-99.99,,2013-05-23 06:12:00,
2013-05-23 02:22:00,67.0,63.0,-100.00,SW,215,1.0,3.0,85,-99.99,,,-99.99,,2013-05-23 06:22:00,
2013-05-23 02:32:00,67.0,62.0,-100.00,WSW,250,2.0,4.0,85,-99.99,,,-99.99,,2013-05-23 06:32:00,
2013-05-23 02:42:00,67.0,62.0,-100.00,WSW,250,2.0,4.0,85,-99.99,,,-99.99,,2013-05-23 06:42:00,
2013-05-23 02:52:00,67.0,62.0,-100.00,SW,220,3.0,7.0,84,-99.99,,,-99.99,,2013-05-23 06:52:00,
2013-05-23 03:02:00,67.0,62.0,-100.00,SW,220,3.0,7.0,84,-99.99,,,-99.99,,2013-05-23 07:02:00,
2013-05-23 03:11:00,66.0,61.0,-100.00,SSW,210,2.0,3.0,84,-99.99,,,-99.99,,2013-05-23 07:11:00,
2013-05-23 03:22:00,66.0,60.0,-100.00,WSW,245,0.0,4.0,82,-99.99,,,-99.99,,2013-05-23 07:22:00,
2013-05-23 03:32:00,66.0,60.0,-100.00,WSW,245,0.0,2.0,81,-99.99,,,-99.99,,2013-05-23 07:32:00,
2013-05-23 03:42:00,66.0,60.0,-100.00,WSW,245,0.0,2.0,81,-99.99,,,-99.99,,2013-05-23 07:42:00,
2013-05-23 03:59:00,66.0,60.0,-100.00,SSE,165,1.0,5.0,80,-99.99,,,-99.99,,2013-05-23 07:59:00,
2013-05-23 04:12:00,67.0,60.0,-100.00,East,90,2.0,3.0,78,-99.99,,,-99.99,,2013-05-23 08:12:00,
2013-05-23 04:22:00,68.0,62.0,-100.00,SE,140,2.0,6.0,80,-99.99,,,-99.99,,2013-05-23 08:22:00,
2013-05-23 04:32:00,68.0,63.0,-100.00,ESE,115,2.0,6.0,84,-99.99,,,-99.99,,2013-05-23 08:32:00,
2013-05-23 04:42:00,68.0,63.0,-100.00,ESE,115,2.0,6.0,84,-99.99,,,-99.99,,2013-05-23 08:42:00,
2013-05-23 04:52:00,69.0,64.0,-100.00,SW,215,2.0,7.0,85,-99.99,,,-99.99,,2013-05-23 08:52:00,
2013-05-23 05:02:00,69.0,64.0,-100.00,SW,215,2.0,7.0,85,-99.99,,,-99.99,,2013-05-23 09:02:00,
2013-05-23 05:11:00,69.0,64.0,-100.00,SSW,195,2.0,9.0,86,-99.99,,,-99.99,,2013-05-23 09:11:00,
2013-05-23 05:22:00,69.0,64.0,-100.00,SW,215,5.0,10.0,86,-99.99,,,-99.99,,2013-05-23 09:22:00,
2013-05-23 05:33:00,69.0,64.0,-100.00,SW,215,5.0,10.0,86,-99.99,,,-99.99,,2013-05-23 09:33:00,
2013-05-23 05:42:00,69.0,64.0,-100.00,SW,230,3.0,11.0,86,-99.99,,,-99.99,,2013-05-23 09:42:00,
2013-05-23 05:53:00,69.0,64.0,-100.00,SW,230,3.0,11.0,86,-99.99,,,-99.99,,2013-05-23 09:53:00,
2013-05-23 06:01:00,68.0,64.0,-100.00,SW,230,6.0,10.0,86,-99.99,,,-99.99,,2013-05-23 10:01:00,
2013-05-23 06:13:00,69.0,64.0,-100.00,WSW,250,4.0,13.0,86,-99.99,,,-99.99,,2013-05-23 10:13:00,
2013-05-23 06:22:00,69.0,64.0,-100.00,SW,235,5.0,12.0,86,-99.99,,,-99.99,,2013-05-23 10:22:00,
2013-05-23 06:32:00,68.0,64.0,-100.00,SW,230,6.0,10.0,86,-99.99,,,-99.99,,2013-05-23 10:32:00,
2013-05-23 06:42:00,68.0,64.0,-100.00,SW,230,6.0,10.0,86,-99.99,,,-99.99,,2013-05-23 10:42:00,
2013-05-23 06:52:00,68.0,64.0,-100.00,SW,230,6.0,10.0,86,-99.99,,,-99.99,,2013-05-23 10:52:00,
2013-05-23 07:12:00,68.0,63.0,-100.00,WSW,245,3.0,8.0,85,-99.99,,,-99.99,,2013-05-23 11:12:00,
2013-05-23 07:22:00,68.0,63.0,-100.00,SW,230,3.0,9.0,84,-99.99,,,-99.99,,2013-05-23 11:22:00,
2013-05-23 07:32:00,68.0,63.0,-100.00,SW,230,3.0,9.0,84,-99.99,,,-99.99,,2013-05-23 11:32:00,
2013-05-23 07:42:00,68.0,63.0,-100.00,WSW,245,3.0,8.0,83,-99.99,,,-99.99,,2013-05-23 11:42:00,
2013-05-23 07:52:00,69.0,63.0,-100.00,WNW,290,2.0,9.0,83,-99.99,,,-99.99,,2013-05-23 11:52:00,
2013-05-23 08:02:00,69.0,63.0,-100.00,WNW,290,2.0,9.0,83,-99.99,,,-99.99,,2013-05-23 12:02:00,
2013-05-23 08:12:00,69.0,64.0,-100.00,WSW,245,6.0,16.0,83,-99.99,,,-99.99,,2013-05-23 12:12:00,
2013-05-23 08:22:00,69.0,64.0,-100.00,NW,310,3.0,9.0,83,-99.99,,,-99.99,,2013-05-23 12:22:00,
2013-05-23 08:32:00,69.0,63.0,-100.00,WSW,240,6.0,15.0,82,-99.99,,,-99.99,,2013-05-23 12:32:00,
2013-05-23 08:42:00,69.0,63.0,-100.00,WSW,240,6.0,15.0,82,-99.99,,,-99.99,,2013-05-23 12:42:00,
2013-05-23 08:52:00,69.0,63.0,-100.00,WSW,240,6.0,15.0,82,-99.99,,,-99.99,,2013-05-23 12:52:00,
2013-05-23 09:11:00,68.0,63.0,-100.00,WSW,250,4.0,13.0,85,-99.99,,,-99.99,,2013-05-23 13:11:00,
2013-05-23 09:22:00,68.0,63.0,-100.00,WSW,240,2.0,7.0,86,-99.99,,,-99.99,,2013-05-23 13:22:00,
2013-05-23 09:32:00,67.0,63.0,-100.00,WSW,245,4.0,10.0,86,-99.99,,,-99.99,,2013-05-23 13:32:00,
2013-05-23 09:42:00,67.0,63.0,-100.00,WSW,245,4.0,10.0,86,-99.99,,,-99.99,,2013-05-23 13:42:00,
2013-05-23 09:52:00,67.0,63.0,-100.00,WSW,245,4.0,10.0,86,-99.99,,,-99.99,,2013-05-23 13:52:00,
2013-05-23 10:11:00,71.0,65.0,-100.00,SW,235,5.0,13.0,84,-99.99,,,-99.99,,2013-05-23 14:11:00,
2013-05-23 10:21:00,69.0,64.0,-100.00,WSW,250,5.0,15.0,82,-99.99,,,-99.99,,2013-05-23 14:21:00,
2013-05-23 10:32:00,69.0,64.0,-100.00,WSW,250,5.0,15.0,82,-99.99,,,-99.99,,2013-05-23 14:32:00,
2013-05-23 10:42:00,70.0,64.0,-100.00,WSW,250,5.0,12.0,82,-99.99,,,-99.99,,2013-05-23 14:42:00,
2013-05-23 10:52:00,69.0,64.0,-100.00,SW,215,5.0,11.0,82,-99.99,,,-99.99,,2013-05-23 14:52:00,
2013-05-23 11:01:00,69.0,64.0,-100.00,SW,215,5.0,11.0,82,-99.99,,,-99.99,,2013-05-23 15:01:00,
2013-05-23 11:11:00,69.0,64.0,-100.00,WSW,245,5.0,15.0,82,-99.99,,,-99.99,,2013-05-23 15:11:00,
2013-05-23 11:22:00,69.0,64.0,-100.00,WSW,245,5.0,15.0,82,-99.99,,,-99.99,,2013-05-23 15:22:00,
2013-05-23 12:13:00,71.0,66.0,-100.00,WSW,255,4.0,10.0,83,-99.99,,,-99.99,,2013-05-23 16:13:00,
2013-05-23 12:23:00,71.0,65.0,-100.00,SW,230,7.0,12.0,82,-99.99,,,-99.99,,2013-05-23 16:23:00,
2013-05-23 12:34:00,71.0,65.0,-100.00,SW,230,7.0,12.0,82,-99.99,,,-99.99,,2013-05-23 16:34:00,
2013-05-23 12:42:00,71.0,64.0,-100.00,WSW,245,5.0,13.0,80,-99.99,,,-99.99,,2013-05-23 16:42:00,
2013-05-23 12:52:00,71.0,65.0,-100.00,WSW,245,7.0,13.0,80,-99.99,,,-99.99,,2013-05-23 16:52:00,
2013-05-23 13:03:00,71.0,65.0,-100.00,WSW,245,7.0,13.0,80,-99.99,,,-99.99,,2013-05-23 17:03:00,
2013-05-23 13:12:00,71.0,64.0,-100.00,SW,235,9.0,20.0,79,-99.99,,,-99.99,,2013-05-23 17:12:00,
2013-05-23 13:23:00,71.0,64.0,-100.00,SW,235,7.0,17.0,80,-99.99,,,-99.99,,2013-05-23 17:23:00,
2013-05-23 13:33:00,69.0,63.0,-100.00,West,260,3.0,11.0,80,-99.99,,,-99.99,,2013-05-23 17:33:00,
2013-05-23 13:43:00,69.0,63.0,-100.00,West,260,3.0,11.0,80,-99.99,,,-99.99,,2013-05-23 17:43:00,
2013-05-23 13:52:00,69.0,63.0,-100.00,West,270,2.0,7.0,82,-99.99,,,-99.99,,2013-05-23 17:52:00,
2013-05-23 14:02:00,69.0,63.0,-100.00,West,270,2.0,7.0,82,-99.99,,,-99.99,,2013-05-23 18:02:00,
2013-05-23 14:11:00,69.0,64.0,-100.00,WSW,245,7.0,13.0,83,-99.99,,,-99.99,,2013-05-23 18:11:00,
2013-05-23 14:22:00,71.0,66.0,-100.00,SW,215,3.0,15.0,83,-99.99,,,-99.99,,2013-05-23 18:22:00,
2013-05-23 14:32:00,71.0,66.0,-100.00,SW,215,3.0,15.0,83,-99.99,,,-99.99,,2013-05-23 18:32:00,
2013-05-23 14:42:00,73.0,65.0,-100.00,WSW,240,6.0,23.0,76,-99.99,,,-99.99,,2013-05-23 18:42:00,
2013-05-23 14:52:00,73.0,63.0,-100.00,SW,225,9.0,20.0,72,-99.99,,,-99.99,,2013-05-23 18:52:00,
2013-05-23 15:02:00,73.0,63.0,-100.00,SW,225,9.0,20.0,72,-99.99,,,-99.99,,2013-05-23 19:02:00,
2013-05-23 15:11:00,73.0,63.0,-100.00,SW,225,7.0,18.0,71,-99.99,,,-99.99,,2013-05-23 19:11:00,
2013-05-23 15:21:00,74.0,63.0,-100.00,WSW,250,5.0,11.0,69,-99.99,,,-99.99,,2013-05-23 19:21:00,
2013-05-23 15:32:00,74.0,63.0,-100.00,WSW,250,5.0,11.0,69,-99.99,,,-99.99,,2013-05-23 19:32:00,
2013-05-23 15:42:00,73.0,62.0,-100.00,SW,215,8.0,16.0,67,-99.99,,,-99.99,,2013-05-23 19:42:00,
2013-05-23 15:52:00,73.0,62.0,-100.00,WSW,255,10.0,18.0,67,-99.99,,,-99.99,,2013-05-23 19:52:00,
2013-05-23 16:02:00,73.0,62.0,-100.00,WSW,255,10.0,18.0,67,-99.99,,,-99.99,,2013-05-23 20:02:00,
2013-05-23 16:12:00,75.0,62.0,-100.00,WSW,250,8.0,16.0,64,-99.99,,,-99.99,,2013-05-23 20:12:00,
2013-05-23 16:22:00,74.0,61.0,-100.00,SW,230,7.0,14.0,64,-99.99,,,-99.99,,2013-05-23 20:22:00,
2013-05-23 16:32:00,72.0,60.0,-100.00,WSW,245,7.0,19.0,64,-99.99,,,-99.99,,2013-05-23 20:32:00,
2013-05-23 16:42:00,72.0,60.0,-100.00,WSW,245,7.0,19.0,64,-99.99,,,-99.99,,2013-05-23 20:42:00,
2013-05-23 16:52:00,70.0,59.0,-100.00,SW,230,3.0,11.0,67,-99.99,,,-99.99,,2013-05-23 20:52:00,
2013-05-23 17:01:00,70.0,59.0,-100.00,SW,230,3.0,11.0,67,-99.99,,,-99.99,,2013-05-23 21:01:00,
2013-05-23 17:11:00,69.0,59.0,-100.00,WNW,285,4.0,8.0,70,-99.99,,,-99.99,,2013-05-23 21:11:00,
2013-05-23 17:22:00,68.0,60.0,-100.00,WSW,250,4.0,10.0,76,-99.99,,,-99.99,,2013-05-23 21:22:00,
2013-05-23 17:33:00,68.0,60.0,-100.00,WSW,250,4.0,10.0,76,-99.99,,,-99.99,,2013-05-23 21:33:00,
2013-05-23 17:43:00,68.0,62.0,-100.00,West,275,4.0,7.0,81,-99.99,,,-99.99,,2013-05-23 21:43:00,
2013-05-23 17:53:00,67.0,62.0,-100.00,WSW,250,3.0,10.0,82,-99.99,,,-99.99,,2013-05-23 21:53:00,
2013-05-23 18:03:00,67.0,62.0,-100.00,WSW,250,3.0,10.0,82,-99.99,,,-99.99,,2013-05-23 22:03:00,
2013-05-23 18:12:00,67.0,62.0,-100.00,WSW,245,4.0,7.0,83,-99.99,,,-99.99,,2013-05-23 22:12:00,
2013-05-23 18:23:00,67.0,62.0,-100.00,WSW,250,3.0,10.0,84,-99.99,,,-99.99,,2013-05-23 22:23:00,
2013-05-23 18:33:00,67.0,62.0,-100.00,WSW,250,3.0,10.0,84,-99.99,,,-99.99,,2013-05-23 22:33:00,
2013-05-23 18:42:00,67.0,62.0,-100.00,ESE,120,1.0,6.0,85,-99.99,,,-99.99,,2013-05-23 22:42:00,
2013-05-23 18:52:00,66.0,62.0,-100.00,ESE,120,1.0,7.0,86,-99.99,,,-99.99,,2013-05-23 22:52:00,
2013-05-23 19:02:00,66.0,62.0,-100.00,ESE,120,1.0,7.0,86,-99.99,,,-99.99,,2013-05-23 23:02:00,
2013-05-23 19:12:00,67.0,62.0,-100.00,West,275,2.0,8.0,86,-99.99,,,-99.99,,2013-05-23 23:12:00,
2013-05-23 19:22:00,67.0,62.0,-100.00,SW,235,3.0,9.0,86,-99.99,,,-99.99,,2013-05-23 23:22:00,
2013-05-23 19:32:00,67.0,63.0,-100.00,SE,130,3.0,10.0,86,-99.99,,,-99.99,,2013-05-23 23:32:00,
2013-05-23 19:42:00,67.0,63.0,-100.00,SE,130,3.0,10.0,86,-99.99,,,-99.99,,2013-05-23 23:42:00,
2013-05-23 19:52:00,67.0,63.0,-100.00,SW,225,5.0,12.0,86,-99.99,,,-99.99,,2013-05-23 23:52:00,
2013-05-23 20:01:00,67.0,63.0,-100.00,SW,225,5.0,12.0,86,-99.99,,,-99.99,,2013-05-24 00:01:00,
2013-05-23 20:12:00,67.0,63.0,-100.00,West,265,3.0,7.0,86,-99.99,,,-99.99,,2013-05-24 00:12:00,
2013-05-23 20:22:00,67.0,62.0,-100.00,SW,220,7.0,14.0,86,-99.99,,,-99.99,,2013-05-24 00:22:00,
2013-05-23 20:32:00,67.0,62.0,-100.00,West,260,2.0,7.0,86,-99.99,,,-99.99,,2013-05-24 00:32:00,
2013-05-23 20:42:00,67.0,62.0,-100.00,West,260,2.0,7.0,86,-99.99,,,-99.99,,2013-05-24 00:42:00,
2013-05-23 20:52:00,67.0,62.0,-100.00,South,180,5.0,9.0,86,-99.99,,,-99.99,,2013-05-24 00:52:00,
2013-05-23 21:01:00,67.0,62.0,-100.00,South,180,5.0,9.0,86,-99.99,,,-99.99,,2013-05-24 01:01:00,
2013-05-23 21:12:00,66.0,62.0,-100.00,SSW,200,5.0,10.0,86,-99.99,,,-99.99,,2013-05-24 01:12:00,
2013-05-23 21:22:00,64.0,60.0,-100.00,SW,230,7.0,19.0,86,-99.99,,,-99.99,,2013-05-24 01:22:00,
2013-05-23 21:32:00,63.0,59.0,-100.00,ESE,115,2.0,7.0,86,-99.99,,,-99.99,,2013-05-24 01:32:00,
2013-05-23 21:42:00,63.0,59.0,-100.00,ESE,115,2.0,7.0,86,-99.99,,,-99.99,,2013-05-24 01:42:00,
2013-05-23 21:52:00,62.0,58.0,-100.00,SW,215,4.0,7.0,86,-99.99,,,-99.99,,2013-05-24 01:52:00,
2013-05-23 22:02:00,62.0,58.0,-100.00,SW,215,4.0,7.0,86,-99.99,,,-99.99,,2013-05-24 02:02:00,
2013-05-23 22:12:00,62.0,58.0,-100.00,SSE,150,1.0,6.0,86,-99.99,,,-99.99,,2013-05-24 02:12:00,
2013-05-23 22:22:00,63.0,59.0,-100.00,East,100,2.0,6.0,86,-99.99,,,-99.99,,2013-05-24 02:22:00,
2013-05-23 22:32:00,65.0,60.0,-100.00,North,0,2.0,6.0,86,-99.99,,,-99.99,,2013-05-24 02:32:00,
2013-05-23 22:42:00,65.0,60.0,-100.00,North,0,2.0,6.0,86,-99.99,,,-99.99,,2013-05-24 02:42:00,
2013-05-23 22:52:00,65.0,61.0,-100.00,SSW,200,3.0,7.0,86,-99.99,,,-99.99,,2013-05-24 02:52:00,
2013-05-23 23:02:00,65.0,61.0,-100.00,SSW,200,3.0,7.0,86,-99.99,,,-99.99,,2013-05-24 03:02:00,
2013-05-23 23:11:00,66.0,61.0,-100.00,WSW,240,2.0,8.0,86,-99.99,,,-99.99,,2013-05-24 03:11:00,
2013-05-23 23:22:00,66.0,62.0,-100.00,SSW,195,4.0,11.0,86,-99.99,,,-99.99,,2013-05-24 03:22:00,
2013-05-23 23:33:00,66.0,62.0,-100.00,SSW,200,5.0,12.0,86,-99.99,,,-99.99,,2013-05-24 03:33:00,
2013-05-23 23:42:00,66.0,62.0,-100.00,SSW,200,5.0,12.0,86,-99.99,,,-99.99,,2013-05-24 03:42:00,
2013-05-23 23:53:00,66.0,62.0,-100.00,SW,215,6.0,10.0,86,-99.99,,,-99.99,,2013-05-24 03:53:00,